sensor_id;sensor_type;location;lat;lon;timestamp;temperature;humidity
70368;DHT22;57789;53.868;10.728;2022-11-13T00:01:19;5.80;99.90
70368;DHT22;57789;53.868;10.728;2022-11-13T00:03:46;5.80;99.90
70368;DHT22;57789;53.868;10.728;2022-11-13T00:06:12;5.70;99.90
70368;DHT22;57789;53.868;10.728;2022-11-13T00:08:39;5.70;99.90
70368;DHT22;57789;53.868;10.728;2022-11-13T00:11:07;5.70;99.90
70368;DHT22;57789;53.868;10.728;2022-11-13T00:13:34;5.70;99.90
70368;DHT22;57789;53.868;10.728;2022-11-13T00:16:03;5.70;99.90
70368;DHT22;57789;53.868;10.728;2022-11-13T00:18:29;5.60;99.90
70368;DHT22;57789;53.868;10.728;2022-11-13T00:20:56;5.60;99.90
70368;DHT22;57789;53.868;10.728;2022-11-13T00:23:23;5.70;99.90
70368;DHT22;57789;53.868;10.728;2022-11-13T00:25:49;5.80;99.90
70368;DHT22;57789;53.868;10.728;2022-11-13T00:28:14;5.60;99.90
70368;DHT22;57789;53.868;10.728;2022-11-13T00:30:40;5.80;99.90
70368;DHT22;57789;53.868;10.728;2022-11-13T00:33:06;5.70;99.90
70368;DHT22;57789;53.868;10.728;2022-11-13T00:35:32;5.70;99.90
70368;DHT22;57789;53.868;10.728;2022-11-13T00:37:58;5.70;99.90
70368;DHT22;57789;53.868;10.728;2022-11-13T00:40:24;5.80;99.90
70368;DHT22;57789;53.868;10.728;2022-11-13T00:42:49;5.80;99.90
70368;DHT22;57789;53.868;10.728;2022-11-13T00:45:15;5.80;99.90
70368;DHT22;57789;53.868;10.728;2022-11-13T00:47:41;5.70;99.90
70368;DHT22;57789;53.868;10.728;2022-11-13T00:50:06;5.60;99.90
70368;DHT22;57789;53.868;10.728;2022-11-13T00:52:32;5.50;99.90
70368;DHT22;57789;53.868;10.728;2022-11-13T00:54:58;5.40;99.90
70368;DHT22;57789;53.868;10.728;2022-11-13T00:57:23;5.40;99.90
70368;DHT22;57789;53.868;10.728;2022-11-13T00:59:49;5.40;99.90
70368;DHT22;57789;53.868;10.728;2022-11-13T01:02:15;5.50;99.90
70368;DHT22;57789;53.868;10.728;2022-11-13T01:04:41;5.50;99.90
70368;DHT22;57789;53.868;10.728;2022-11-13T01:07:07;5.60;99.90
70368;DHT22;57789;53.868;10.728;2022-11-13T01:09:32;5.60;99.90
70368;DHT22;57789;53.868;10.728;2022-11-13T01:11:58;5.50;99.90
70368;DHT22;57789;53.868;10.728;2022-11-13T01:14:24;5.60;99.90
70368;DHT22;57789;53.868;10.728;2022-11-13T01:16:49;5.60;99.90
70368;DHT22;57789;53.868;10.728;2022-11-13T01:19:15;5.60;99.90
70368;DHT22;57789;53.868;10.728;2022-11-13T01:21:41;5.80;99.90
70368;DHT22;57789;53.868;10.728;2022-11-13T01:24:06;5.80;99.90
70368;DHT22;57789;53.868;10.728;2022-11-13T01:26:32;5.80;99.90
70368;DHT22;57789;53.868;10.728;2022-11-13T01:28:58;5.70;99.90
70368;DHT22;57789;53.868;10.728;2022-11-13T01:31:27;5.70;99.90
70368;DHT22;57789;53.868;10.728;2022-11-13T01:33:53;5.70;99.90
70368;DHT22;57789;53.868;10.728;2022-11-13T01:36:21;5.70;99.90
70368;DHT22;57789;53.868;10.728;2022-11-13T01:38:47;5.40;99.90
70368;DHT22;57789;53.868;10.728;2022-11-13T01:41:22;5.60;99.90
70368;DHT22;57789;53.868;10.728;2022-11-13T01:43:48;5.50;99.90
70368;DHT22;57789;53.868;10.728;2022-11-13T01:46:40;5.50;99.90
70368;DHT22;57789;53.868;10.728;2022-11-13T01:51:45;5.70;99.90
70368;DHT22;57789;53.868;10.728;2022-11-13T01:54:21;5.60;99.90
70368;DHT22;57789;53.868;10.728;2022-11-13T01:56:48;5.50;99.90
70368;DHT22;57789;53.868;10.728;2022-11-13T01:59:17;5.50;99.90
70368;DHT22;57789;53.868;10.728;2022-11-13T02:01:45;5.40;99.90
70368;DHT22;57789;53.868;10.728;2022-11-13T02:04:10;5.40;99.90
70368;DHT22;57789;53.868;10.728;2022-11-13T02:06:52;5.30;99.90
70368;DHT22;57789;53.868;10.728;2022-11-13T02:09:21;5.20;99.90
70368;DHT22;57789;53.868;10.728;2022-11-13T02:11:48;5.40;99.90
70368;DHT22;57789;53.868;10.728;2022-11-13T02:14:15;5.50;99.90
70368;DHT22;57789;53.868;10.728;2022-11-13T02:16:43;5.50;99.90
70368;DHT22;57789;53.868;10.728;2022-11-13T02:19:18;5.60;99.90
70368;DHT22;57789;53.868;10.728;2022-11-13T02:21:58;5.40;99.90
70368;DHT22;57789;53.868;10.728;2022-11-13T02:24:32;5.30;99.90
70368;DHT22;57789;53.868;10.728;2022-11-13T02:27:01;5.50;99.90
70368;DHT22;57789;53.868;10.728;2022-11-13T02:29:28;5.60;99.90
70368;DHT22;57789;53.868;10.728;2022-11-13T02:31:54;5.70;99.90
70368;DHT22;57789;53.868;10.728;2022-11-13T02:34:20;5.80;99.90
70368;DHT22;57789;53.868;10.728;2022-11-13T02:36:46;6.00;99.90
70368;DHT22;57789;53.868;10.728;2022-11-13T02:39:13;6.00;99.90
70368;DHT22;57789;53.868;10.728;2022-11-13T02:41:38;5.90;99.90
70368;DHT22;57789;53.868;10.728;2022-11-13T02:44:07;6.00;99.90
70368;DHT22;57789;53.868;10.728;2022-11-13T02:46:33;6.00;99.90
70368;DHT22;57789;53.868;10.728;2022-11-13T02:48:59;5.90;99.90
70368;DHT22;57789;53.868;10.728;2022-11-13T02:51:25;5.80;99.90
70368;DHT22;57789;53.868;10.728;2022-11-13T02:53:51;5.90;99.90
70368;DHT22;57789;53.868;10.728;2022-11-13T02:56:17;5.70;99.90
70368;DHT22;57789;53.868;10.728;2022-11-13T02:58:43;5.70;99.90
70368;DHT22;57789;53.868;10.728;2022-11-13T03:01:08;5.70;99.90
70368;DHT22;57789;53.868;10.728;2022-11-13T03:03:34;5.70;99.90
70368;DHT22;57789;53.868;10.728;2022-11-13T03:06:00;5.70;99.90
70368;DHT22;57789;53.868;10.728;2022-11-13T03:08:25;5.80;99.90
70368;DHT22;57789;53.868;10.728;2022-11-13T03:10:52;5.70;99.90
70368;DHT22;57789;53.868;10.728;2022-11-13T03:13:19;5.60;99.90
70368;DHT22;57789;53.868;10.728;2022-11-13T03:15:45;5.50;99.90
70368;DHT22;57789;53.868;10.728;2022-11-13T03:18:11;5.40;99.90
70368;DHT22;57789;53.868;10.728;2022-11-13T03:20:39;5.40;99.90
70368;DHT22;57789;53.868;10.728;2022-11-13T03:23:06;5.50;99.90
70368;DHT22;57789;53.868;10.728;2022-11-13T03:25:32;5.60;99.90
70368;DHT22;57789;53.868;10.728;2022-11-13T03:27:58;5.60;99.90
70368;DHT22;57789;53.868;10.728;2022-11-13T03:30:25;5.50;99.90
70368;DHT22;57789;53.868;10.728;2022-11-13T03:32:54;5.60;99.90
70368;DHT22;57789;53.868;10.728;2022-11-13T03:35:21;5.50;99.90
70368;DHT22;57789;53.868;10.728;2022-11-13T03:37:47;5.60;99.90
70368;DHT22;57789;53.868;10.728;2022-11-13T03:40:12;5.60;99.90
70368;DHT22;57789;53.868;10.728;2022-11-13T03:42:38;5.50;99.90
70368;DHT22;57789;53.868;10.728;2022-11-13T03:45:04;5.50;99.90
70368;DHT22;57789;53.868;10.728;2022-11-13T03:47:30;5.50;99.90
70368;DHT22;57789;53.868;10.728;2022-11-13T03:49:55;5.50;99.90
70368;DHT22;57789;53.868;10.728;2022-11-13T03:52:21;5.40;99.90
70368;DHT22;57789;53.868;10.728;2022-11-13T03:54:46;5.30;99.90
70368;DHT22;57789;53.868;10.728;2022-11-13T03:57:12;5.30;99.90
70368;DHT22;57789;53.868;10.728;2022-11-13T03:59:37;5.30;99.90
70368;DHT22;57789;53.868;10.728;2022-11-13T04:02:03;5.20;99.90
70368;DHT22;57789;53.868;10.728;2022-11-13T04:04:29;5.10;99.90
70368;DHT22;57789;53.868;10.728;2022-11-13T04:06:54;5.10;99.90
70368;DHT22;57789;53.868;10.728;2022-11-13T04:09:20;5.00;99.90
70368;DHT22;57789;53.868;10.728;2022-11-13T04:11:46;5.00;99.90
70368;DHT22;57789;53.868;10.728;2022-11-13T04:14:11;5.10;99.90
70368;DHT22;57789;53.868;10.728;2022-11-13T04:16:37;5.00;99.90
70368;DHT22;57789;53.868;10.728;2022-11-13T04:19:03;5.20;99.90
70368;DHT22;57789;53.868;10.728;2022-11-13T04:21:28;5.20;99.90
70368;DHT22;57789;53.868;10.728;2022-11-13T04:23:54;5.30;99.90
70368;DHT22;57789;53.868;10.728;2022-11-13T04:26:20;5.30;99.90
70368;DHT22;57789;53.868;10.728;2022-11-13T04:28:45;5.40;99.90
70368;DHT22;57789;53.868;10.728;2022-11-13T04:31:11;5.60;99.90
70368;DHT22;57789;53.868;10.728;2022-11-13T04:33:36;5.50;99.90
70368;DHT22;57789;53.868;10.728;2022-11-13T04:36:02;5.40;99.90
70368;DHT22;57789;53.868;10.728;2022-11-13T04:38:28;5.50;99.90
70368;DHT22;57789;53.868;10.728;2022-11-13T04:40:53;5.60;99.90
70368;DHT22;57789;53.868;10.728;2022-11-13T04:43:39;5.60;99.90
70368;DHT22;57789;53.868;10.728;2022-11-13T04:46:05;5.50;99.90
70368;DHT22;57789;53.868;10.728;2022-11-13T04:48:31;5.60;99.90
70368;DHT22;57789;53.868;10.728;2022-11-13T04:50:56;5.70;99.90
70368;DHT22;57789;53.868;10.728;2022-11-13T04:53:22;5.70;99.90
70368;DHT22;57789;53.868;10.728;2022-11-13T04:55:48;5.80;99.90
70368;DHT22;57789;53.868;10.728;2022-11-13T04:58:13;5.80;99.90
70368;DHT22;57789;53.868;10.728;2022-11-13T05:00:39;5.80;99.90
70368;DHT22;57789;53.868;10.728;2022-11-13T05:03:04;6.00;99.90
70368;DHT22;57789;53.868;10.728;2022-11-13T05:05:30;6.00;99.90
70368;DHT22;57789;53.868;10.728;2022-11-13T05:07:56;5.90;99.90
70368;DHT22;57789;53.868;10.728;2022-11-13T05:10:21;5.80;99.90
70368;DHT22;57789;53.868;10.728;2022-11-13T05:12:47;5.90;99.90
70368;DHT22;57789;53.868;10.728;2022-11-13T05:15:13;5.90;99.90
70368;DHT22;57789;53.868;10.728;2022-11-13T05:17:38;6.00;99.90
70368;DHT22;57789;53.868;10.728;2022-11-13T05:20:04;6.00;99.90
70368;DHT22;57789;53.868;10.728;2022-11-13T05:22:30;5.80;99.90
70368;DHT22;57789;53.868;10.728;2022-11-13T05:24:55;5.80;99.90
70368;DHT22;57789;53.868;10.728;2022-11-13T05:27:21;5.70;99.90
70368;DHT22;57789;53.868;10.728;2022-11-13T05:29:47;5.60;99.90
70368;DHT22;57789;53.868;10.728;2022-11-13T05:32:12;5.70;99.90
70368;DHT22;57789;53.868;10.728;2022-11-13T05:34:38;5.60;99.90
70368;DHT22;57789;53.868;10.728;2022-11-13T05:37:04;5.70;99.90
70368;DHT22;57789;53.868;10.728;2022-11-13T05:39:29;5.70;99.90
70368;DHT22;57789;53.868;10.728;2022-11-13T05:41:55;5.90;99.90
70368;DHT22;57789;53.868;10.728;2022-11-13T05:44:20;5.90;99.90
70368;DHT22;57789;53.868;10.728;2022-11-13T05:46:46;5.80;99.90
70368;DHT22;57789;53.868;10.728;2022-11-13T05:49:12;5.80;99.90
70368;DHT22;57789;53.868;10.728;2022-11-13T05:51:37;5.80;99.90
70368;DHT22;57789;53.868;10.728;2022-11-13T05:54:03;5.70;99.90
70368;DHT22;57789;53.868;10.728;2022-11-13T05:56:33;5.80;99.90
70368;DHT22;57789;53.868;10.728;2022-11-13T05:59:00;5.60;99.90
70368;DHT22;57789;53.868;10.728;2022-11-13T06:01:31;5.70;99.90
70368;DHT22;57789;53.868;10.728;2022-11-13T06:03:58;5.70;99.90
70368;DHT22;57789;53.868;10.728;2022-11-13T06:06:25;5.50;99.90
70368;DHT22;57789;53.868;10.728;2022-11-13T06:08:52;5.50;99.90
70368;DHT22;57789;53.868;10.728;2022-11-13T06:11:21;5.50;99.90
70368;DHT22;57789;53.868;10.728;2022-11-13T06:13:48;5.50;99.90
70368;DHT22;57789;53.868;10.728;2022-11-13T06:16:17;5.40;99.90
70368;DHT22;57789;53.868;10.728;2022-11-13T06:18:44;5.50;99.90
70368;DHT22;57789;53.868;10.728;2022-11-13T06:21:17;5.40;99.90
70368;DHT22;57789;53.868;10.728;2022-11-13T06:23:43;5.30;99.90
70368;DHT22;57789;53.868;10.728;2022-11-13T06:26:20;5.40;99.90
70368;DHT22;57789;53.868;10.728;2022-11-13T06:28:46;5.30;99.90
70368;DHT22;57789;53.868;10.728;2022-11-13T06:31:14;5.20;99.90
70368;DHT22;57789;53.868;10.728;2022-11-13T06:33:41;5.30;99.90
70368;DHT22;57789;53.868;10.728;2022-11-13T06:36:12;5.30;99.90
70368;DHT22;57789;53.868;10.728;2022-11-13T06:38:39;5.20;99.90
70368;DHT22;57789;53.868;10.728;2022-11-13T06:41:06;5.30;99.90
70368;DHT22;57789;53.868;10.728;2022-11-13T06:43:32;5.20;99.90
70368;DHT22;57789;53.868;10.728;2022-11-13T06:46:01;5.20;99.90
70368;DHT22;57789;53.868;10.728;2022-11-13T06:48:27;5.30;99.90
70368;DHT22;57789;53.868;10.728;2022-11-13T06:50:53;5.30;99.90
70368;DHT22;57789;53.868;10.728;2022-11-13T06:53:18;5.40;99.90
70368;DHT22;57789;53.868;10.728;2022-11-13T06:55:48;5.40;99.90
70368;DHT22;57789;53.868;10.728;2022-11-13T06:58:14;5.40;99.90
70368;DHT22;57789;53.868;10.728;2022-11-13T07:00:42;5.50;99.90
70368;DHT22;57789;53.868;10.728;2022-11-13T07:03:22;5.40;99.90
70368;DHT22;57789;53.868;10.728;2022-11-13T07:05:48;5.50;99.90
70368;DHT22;57789;53.868;10.728;2022-11-13T07:08:14;5.60;99.90
70368;DHT22;57789;53.868;10.728;2022-11-13T07:10:40;5.70;99.90
70368;DHT22;57789;53.868;10.728;2022-11-13T07:13:07;5.70;99.90
70368;DHT22;57789;53.868;10.728;2022-11-13T07:15:37;5.80;99.90
70368;DHT22;57789;53.868;10.728;2022-11-13T07:18:04;5.80;99.90
70368;DHT22;57789;53.868;10.728;2022-11-13T07:20:31;5.80;99.90
70368;DHT22;57789;53.868;10.728;2022-11-13T07:22:58;5.80;99.90
70368;DHT22;57789;53.868;10.728;2022-11-13T07:25:24;5.90;99.90
70368;DHT22;57789;53.868;10.728;2022-11-13T07:27:51;6.00;99.90
70368;DHT22;57789;53.868;10.728;2022-11-13T07:30:17;6.00;99.90
70368;DHT22;57789;53.868;10.728;2022-11-13T07:32:43;6.10;99.90
70368;DHT22;57789;53.868;10.728;2022-11-13T07:35:08;6.10;99.90
70368;DHT22;57789;53.868;10.728;2022-11-13T07:37:34;6.20;99.90
70368;DHT22;57789;53.868;10.728;2022-11-13T07:40:00;6.30;99.90
70368;DHT22;57789;53.868;10.728;2022-11-13T07:42:26;6.40;99.90
70368;DHT22;57789;53.868;10.728;2022-11-13T07:44:52;6.40;99.90
70368;DHT22;57789;53.868;10.728;2022-11-13T07:47:18;6.60;99.90
70368;DHT22;57789;53.868;10.728;2022-11-13T07:49:43;6.60;99.90
70368;DHT22;57789;53.868;10.728;2022-11-13T07:52:09;6.70;99.90
70368;DHT22;57789;53.868;10.728;2022-11-13T07:54:35;6.80;99.90
70368;DHT22;57789;53.868;10.728;2022-11-13T07:57:01;6.80;99.90
70368;DHT22;57789;53.868;10.728;2022-11-13T07:59:26;6.90;99.90
70368;DHT22;57789;53.868;10.728;2022-11-13T08:01:52;7.00;99.90
70368;DHT22;57789;53.868;10.728;2022-11-13T08:04:18;7.00;99.90
70368;DHT22;57789;53.868;10.728;2022-11-13T08:06:43;7.10;99.90
70368;DHT22;57789;53.868;10.728;2022-11-13T08:09:09;7.20;99.90
70368;DHT22;57789;53.868;10.728;2022-11-13T08:11:35;7.40;99.90
70368;DHT22;57789;53.868;10.728;2022-11-13T08:14:01;7.50;99.90
70368;DHT22;57789;53.868;10.728;2022-11-13T08:16:27;7.60;99.90
70368;DHT22;57789;53.868;10.728;2022-11-13T08:18:52;7.70;99.90
70368;DHT22;57789;53.868;10.728;2022-11-13T08:21:18;7.70;99.90
70368;DHT22;57789;53.868;10.728;2022-11-13T08:23:45;7.80;99.90
70368;DHT22;57789;53.868;10.728;2022-11-13T08:26:11;7.90;99.90
70368;DHT22;57789;53.868;10.728;2022-11-13T08:28:37;7.90;99.90
70368;DHT22;57789;53.868;10.728;2022-11-13T08:31:03;7.90;99.90
70368;DHT22;57789;53.868;10.728;2022-11-13T08:33:29;7.90;99.90
70368;DHT22;57789;53.868;10.728;2022-11-13T08:35:55;7.90;99.90
70368;DHT22;57789;53.868;10.728;2022-11-13T08:38:22;8.00;99.90
70368;DHT22;57789;53.868;10.728;2022-11-13T08:40:48;8.00;99.90
70368;DHT22;57789;53.868;10.728;2022-11-13T08:43:14;8.00;99.90
70368;DHT22;57789;53.868;10.728;2022-11-13T08:45:39;8.00;99.90
70368;DHT22;57789;53.868;10.728;2022-11-13T08:48:05;7.90;99.90
70368;DHT22;57789;53.868;10.728;2022-11-13T08:50:32;7.90;99.90
70368;DHT22;57789;53.868;10.728;2022-11-13T08:52:59;8.00;99.90
70368;DHT22;57789;53.868;10.728;2022-11-13T08:55:26;8.10;99.90
70368;DHT22;57789;53.868;10.728;2022-11-13T08:57:52;8.00;99.90
70368;DHT22;57789;53.868;10.728;2022-11-13T09:00:19;8.10;99.90
70368;DHT22;57789;53.868;10.728;2022-11-13T09:02:45;8.00;99.90
70368;DHT22;57789;53.868;10.728;2022-11-13T09:05:11;8.00;99.90
70368;DHT22;57789;53.868;10.728;2022-11-13T09:07:37;8.00;99.90
70368;DHT22;57789;53.868;10.728;2022-11-13T09:10:03;8.00;99.90
70368;DHT22;57789;53.868;10.728;2022-11-13T09:12:29;7.90;99.90
70368;DHT22;57789;53.868;10.728;2022-11-13T09:14:54;7.80;99.90
70368;DHT22;57789;53.868;10.728;2022-11-13T09:17:20;7.90;99.90
70368;DHT22;57789;53.868;10.728;2022-11-13T09:19:46;7.90;99.90
70368;DHT22;57789;53.868;10.728;2022-11-13T09:22:11;8.00;99.90
70368;DHT22;57789;53.868;10.728;2022-11-13T09:24:37;8.00;99.90
70368;DHT22;57789;53.868;10.728;2022-11-13T09:27:03;8.10;99.90
70368;DHT22;57789;53.868;10.728;2022-11-13T09:29:29;8.30;99.90
70368;DHT22;57789;53.868;10.728;2022-11-13T09:31:55;8.30;99.90
70368;DHT22;57789;53.868;10.728;2022-11-13T09:34:21;8.40;99.90
70368;DHT22;57789;53.868;10.728;2022-11-13T09:36:47;8.50;99.90
70368;DHT22;57789;53.868;10.728;2022-11-13T09:39:13;8.40;99.90
70368;DHT22;57789;53.868;10.728;2022-11-13T09:41:45;8.40;99.90
70368;DHT22;57789;53.868;10.728;2022-11-13T09:44:29;8.40;99.90
70368;DHT22;57789;53.868;10.728;2022-11-13T09:47:10;8.30;99.90
70368;DHT22;57789;53.868;10.728;2022-11-13T09:49:44;8.20;99.90
70368;DHT22;57789;53.868;10.728;2022-11-13T09:52:17;8.30;99.90
70368;DHT22;57789;53.868;10.728;2022-11-13T09:54:44;8.40;99.90
70368;DHT22;57789;53.868;10.728;2022-11-13T10:00:05;8.40;99.90
70368;DHT22;57789;53.868;10.728;2022-11-13T10:05:50;8.40;99.90
70368;DHT22;57789;53.868;10.728;2022-11-13T10:10:49;8.50;99.90
70368;DHT22;57789;53.868;10.728;2022-11-13T10:13:23;8.60;99.90
70368;DHT22;57789;53.868;10.728;2022-11-13T10:15:58;8.50;99.90
70368;DHT22;57789;53.868;10.728;2022-11-13T10:18:32;8.50;99.90
70368;DHT22;57789;53.868;10.728;2022-11-13T10:22:01;8.50;99.90
70368;DHT22;57789;53.868;10.728;2022-11-13T10:24:03;8.60;99.90
70368;DHT22;57789;53.868;10.728;2022-11-13T10:26:30;8.70;99.90
70368;DHT22;57789;53.868;10.728;2022-11-13T10:29:07;8.60;99.90
70368;DHT22;57789;53.868;10.728;2022-11-13T10:31:48;8.70;99.90
70368;DHT22;57789;53.868;10.728;2022-11-13T10:34:15;8.70;99.90
70368;DHT22;57789;53.868;10.728;2022-11-13T10:37:04;8.70;99.90
70368;DHT22;57789;53.868;10.728;2022-11-13T10:39:44;8.60;99.90
70368;DHT22;57789;53.868;10.728;2022-11-13T10:42:26;8.60;99.90
70368;DHT22;57789;53.868;10.728;2022-11-13T10:44:59;8.40;99.90
70368;DHT22;57789;53.868;10.728;2022-11-13T10:47:27;8.50;99.90
70368;DHT22;57789;53.868;10.728;2022-11-13T10:49:54;8.50;99.90
70368;DHT22;57789;53.868;10.728;2022-11-13T10:52:26;8.50;99.90
70368;DHT22;57789;53.868;10.728;2022-11-13T10:58:00;8.60;99.90
70368;DHT22;57789;53.868;10.728;2022-11-13T11:02:55;8.60;99.90
70368;DHT22;57789;53.868;10.728;2022-11-13T11:05:23;8.70;99.90
70368;DHT22;57789;53.868;10.728;2022-11-13T11:07:49;8.70;99.90
70368;DHT22;57789;53.868;10.728;2022-11-13T11:10:19;8.80;99.90
70368;DHT22;57789;53.868;10.728;2022-11-13T11:12:54;8.70;99.90
70368;DHT22;57789;53.868;10.728;2022-11-13T11:18:17;8.80;99.90
70368;DHT22;57789;53.868;10.728;2022-11-13T11:20:52;8.80;99.90
70368;DHT22;57789;53.868;10.728;2022-11-13T11:26:38;9.00;99.90
70368;DHT22;57789;53.868;10.728;2022-11-13T11:29:21;9.10;99.90
70368;DHT22;57789;53.868;10.728;2022-11-13T11:31:57;9.00;99.90
70368;DHT22;57789;53.868;10.728;2022-11-13T11:37:18;9.00;99.90
70368;DHT22;57789;53.868;10.728;2022-11-13T11:39:54;9.00;99.90
70368;DHT22;57789;53.868;10.728;2022-11-13T11:42:44;9.00;99.90
70368;DHT22;57789;53.868;10.728;2022-11-13T11:45:36;9.10;99.90
70368;DHT22;57789;53.868;10.728;2022-11-13T11:48:11;9.20;99.90
70368;DHT22;57789;53.868;10.728;2022-11-13T11:50:56;9.20;99.90
70368;DHT22;57789;53.868;10.728;2022-11-13T11:53:45;9.30;99.90
70368;DHT22;57789;53.868;10.728;2022-11-13T11:59:23;9.40;99.90
70368;DHT22;57789;53.868;10.728;2022-11-13T12:10:41;9.50;99.90
70368;DHT22;57789;53.868;10.728;2022-11-13T12:13:14;9.50;99.90
70368;DHT22;57789;53.868;10.728;2022-11-13T12:21:26;9.50;99.90
70368;DHT22;57789;53.868;10.728;2022-11-13T12:26:52;9.50;99.90
70368;DHT22;57789;53.868;10.728;2022-11-13T12:32:44;9.80;99.90
70368;DHT22;57789;53.868;10.728;2022-11-13T12:35:22;9.90;99.90
70368;DHT22;57789;53.868;10.728;2022-11-13T12:37:56;9.80;99.90
70368;DHT22;57789;53.868;10.728;2022-11-13T12:40:58;9.90;99.90
70368;DHT22;57789;53.868;10.728;2022-11-13T12:46:18;10.00;99.90
70368;DHT22;57789;53.868;10.728;2022-11-13T12:48:46;10.10;99.90
70368;DHT22;57789;53.868;10.728;2022-11-13T12:51:17;10.00;99.90
70368;DHT22;57789;53.868;10.728;2022-11-13T12:53:46;10.10;99.90
70368;DHT22;57789;53.868;10.728;2022-11-13T12:58:57;10.10;99.90
70368;DHT22;57789;53.868;10.728;2022-11-13T13:01:26;10.10;99.90
70368;DHT22;57789;53.868;10.728;2022-11-13T13:04:26;10.10;99.90
70368;DHT22;57789;53.868;10.728;2022-11-13T13:09:56;10.00;99.90
70368;DHT22;57789;53.868;10.728;2022-11-13T13:13:01;10.10;99.90
70368;DHT22;57789;53.868;10.728;2022-11-13T13:15:36;10.10;99.90
70368;DHT22;57789;53.868;10.728;2022-11-13T13:18:08;10.10;99.90
70368;DHT22;57789;53.868;10.728;2022-11-13T13:20:41;10.10;99.90
70368;DHT22;57789;53.868;10.728;2022-11-13T13:23:11;10.00;99.90
70368;DHT22;57789;53.868;10.728;2022-11-13T13:25:38;9.90;99.90
70368;DHT22;57789;53.868;10.728;2022-11-13T13:30:53;9.80;99.90
70368;DHT22;57789;53.868;10.728;2022-11-13T13:46:55;9.60;99.90
70368;DHT22;57789;53.868;10.728;2022-11-13T13:49:23;9.50;99.90
70368;DHT22;57789;53.868;10.728;2022-11-13T13:51:54;9.50;99.90
70368;DHT22;57789;53.868;10.728;2022-11-13T13:54:29;9.50;99.90
70368;DHT22;57789;53.868;10.728;2022-11-13T13:56:56;9.50;99.90
70368;DHT22;57789;53.868;10.728;2022-11-13T13:59:30;9.60;99.90
70368;DHT22;57789;53.868;10.728;2022-11-13T14:02:02;9.60;99.90
70368;DHT22;57789;53.868;10.728;2022-11-13T14:04:32;9.70;99.90
70368;DHT22;57789;53.868;10.728;2022-11-13T14:07:00;9.70;99.90
70368;DHT22;57789;53.868;10.728;2022-11-13T14:09:29;9.70;99.90
70368;DHT22;57789;53.868;10.728;2022-11-13T14:12:03;9.70;99.90
70368;DHT22;57789;53.868;10.728;2022-11-13T14:14:30;9.70;99.90
70368;DHT22;57789;53.868;10.728;2022-11-13T14:17:00;9.70;99.90
70368;DHT22;57789;53.868;10.728;2022-11-13T14:19:26;9.80;99.90
70368;DHT22;57789;53.868;10.728;2022-11-13T14:21:58;9.80;99.90
70368;DHT22;57789;53.868;10.728;2022-11-13T14:24:30;9.90;99.90
70368;DHT22;57789;53.868;10.728;2022-11-13T14:27:00;9.90;99.90
70368;DHT22;57789;53.868;10.728;2022-11-13T14:29:40;9.80;99.90
70368;DHT22;57789;53.868;10.728;2022-11-13T14:32:13;10.00;99.90
70368;DHT22;57789;53.868;10.728;2022-11-13T14:34:44;10.00;99.90
70368;DHT22;57789;53.868;10.728;2022-11-13T14:37:33;9.90;99.90
70368;DHT22;57789;53.868;10.728;2022-11-13T14:40:02;9.90;99.90
70368;DHT22;57789;53.868;10.728;2022-11-13T14:42:33;9.90;99.90
70368;DHT22;57789;53.868;10.728;2022-11-13T14:45:19;9.90;99.90
70368;DHT22;57789;53.868;10.728;2022-11-13T14:48:01;10.00;99.90
70368;DHT22;57789;53.868;10.728;2022-11-13T14:50:33;10.00;99.90
70368;DHT22;57789;53.868;10.728;2022-11-13T14:53:07;9.90;99.90
70368;DHT22;57789;53.868;10.728;2022-11-13T14:55:48;9.80;99.90
70368;DHT22;57789;53.868;10.728;2022-11-13T14:58:14;9.90;99.90
70368;DHT22;57789;53.868;10.728;2022-11-13T15:00:39;9.90;99.90
70368;DHT22;57789;53.868;10.728;2022-11-13T15:03:05;9.90;99.90
70368;DHT22;57789;53.868;10.728;2022-11-13T15:05:31;9.90;99.90
70368;DHT22;57789;53.868;10.728;2022-11-13T15:07:58;9.80;99.90
70368;DHT22;57789;53.868;10.728;2022-11-13T15:10:25;9.90;99.90
70368;DHT22;57789;53.868;10.728;2022-11-13T15:12:51;9.80;99.90
70368;DHT22;57789;53.868;10.728;2022-11-13T15:15:25;9.80;99.90
70368;DHT22;57789;53.868;10.728;2022-11-13T15:17:52;9.80;99.90
70368;DHT22;57789;53.868;10.728;2022-11-13T15:20:25;9.80;99.90
70368;DHT22;57789;53.868;10.728;2022-11-13T15:22:52;9.80;99.90
70368;DHT22;57789;53.868;10.728;2022-11-13T15:25:20;9.80;99.90
70368;DHT22;57789;53.868;10.728;2022-11-13T15:27:46;9.80;99.90
70368;DHT22;57789;53.868;10.728;2022-11-13T15:30:12;9.80;99.90
70368;DHT22;57789;53.868;10.728;2022-11-13T15:32:39;9.80;99.90
70368;DHT22;57789;53.868;10.728;2022-11-13T15:35:08;9.80;99.90
70368;DHT22;57789;53.868;10.728;2022-11-13T15:37:34;9.80;99.90
70368;DHT22;57789;53.868;10.728;2022-11-13T15:40:00;9.80;99.90
70368;DHT22;57789;53.868;10.728;2022-11-13T15:42:32;9.80;99.90
70368;DHT22;57789;53.868;10.728;2022-11-13T15:44:58;9.90;99.90
70368;DHT22;57789;53.868;10.728;2022-11-13T15:49:51;9.90;99.90
70368;DHT22;57789;53.868;10.728;2022-11-13T15:52:17;9.90;99.90
70368;DHT22;57789;53.868;10.728;2022-11-13T15:54:42;9.90;99.90
70368;DHT22;57789;53.868;10.728;2022-11-13T15:57:17;9.90;99.90
70368;DHT22;57789;53.868;10.728;2022-11-13T15:59:50;9.90;99.90
70368;DHT22;57789;53.868;10.728;2022-11-13T16:02:15;9.90;99.90
70368;DHT22;57789;53.868;10.728;2022-11-13T16:04:42;10.00;99.90
70368;DHT22;57789;53.868;10.728;2022-11-13T16:07:17;10.00;99.90
70368;DHT22;57789;53.868;10.728;2022-11-13T16:09:44;10.00;99.90
70368;DHT22;57789;53.868;10.728;2022-11-13T16:12:11;10.00;99.90
70368;DHT22;57789;53.868;10.728;2022-11-13T16:14:37;10.00;99.90
70368;DHT22;57789;53.868;10.728;2022-11-13T16:17:09;10.00;99.90
70368;DHT22;57789;53.868;10.728;2022-11-13T16:19:36;10.00;99.90
70368;DHT22;57789;53.868;10.728;2022-11-13T16:22:02;10.00;99.90
70368;DHT22;57789;53.868;10.728;2022-11-13T16:24:27;10.00;99.90
70368;DHT22;57789;53.868;10.728;2022-11-13T16:26:55;10.00;99.90
70368;DHT22;57789;53.868;10.728;2022-11-13T16:29:22;10.00;99.90
70368;DHT22;57789;53.868;10.728;2022-11-13T16:31:48;10.00;99.90
70368;DHT22;57789;53.868;10.728;2022-11-13T16:34:14;10.00;99.90
70368;DHT22;57789;53.868;10.728;2022-11-13T16:36:40;10.00;99.90
70368;DHT22;57789;53.868;10.728;2022-11-13T16:39:13;9.90;99.90
70368;DHT22;57789;53.868;10.728;2022-11-13T16:41:40;9.90;99.90
70368;DHT22;57789;53.868;10.728;2022-11-13T16:44:05;9.90;99.90
70368;DHT22;57789;53.868;10.728;2022-11-13T16:46:37;10.00;99.90
70368;DHT22;57789;53.868;10.728;2022-11-13T16:49:03;10.00;99.90
70368;DHT22;57789;53.868;10.728;2022-11-13T16:51:29;10.00;99.90
70368;DHT22;57789;53.868;10.728;2022-11-13T16:53:54;10.00;99.90
70368;DHT22;57789;53.868;10.728;2022-11-13T16:56:25;10.10;99.90